Time;durP1;ratioP1;P1;durP2;ratioP2;P2;SDS_P1;SDS_P2;PMS_P1;PMS_P2;Temp;Humidity;BMP_temperature;BMP_pressure;BME280_temperature;BME280_humidity;BME280_pressure;Samples;Min_cycle;Max_cycle;Signal;HPM_P1;HPM_P2
2023/03/28 00:00:42;;;;;;;0.47;0.47;;;3.20;99.90;;;;;;5092778;28;20032;-72
2023/03/28 00:03:08;;;;;;;1.90;1.65;;;3.30;99.90;;;;;;5093136;28;20110;-71
2023/03/28 00:05:33;;;;;;;0.20;0.20;;;3.20;99.90;;;;;;5093099;28;20099;-71
2023/03/28 00:07:59;;;;;;;1.10;0.57;;;3.20;99.90;;;;;;5092736;28;20036;-72
2023/03/28 00:10:26;;;;;;;1.45;1.30;;;3.10;99.90;;;;;;5089216;28;20107;-72
2023/03/28 00:12:52;;;;;;;0.10;0.10;;;3.00;99.90;;;;;;5092724;28;20440;-72
2023/03/28 00:15:18;;;;;;;0.47;0.47;;;3.20;99.90;;;;;;5092759;28;20032;-72
2023/03/28 00:17:44;;;;;;;0.10;0.10;;;3.30;99.90;;;;;;5092728;28;20122;-72
2023/03/28 00:20:11;;;;;;;0.10;0.10;;;3.30;99.90;;;;;;5093119;28;20028;-72
2023/03/28 00:22:37;;;;;;;0.10;0.10;;;3.70;99.90;;;;;;5093376;28;20047;-72
2023/03/28 00:25:05;;;;;;;0.47;0.47;;;3.70;99.90;;;;;;5092807;28;20055;-72
2023/03/28 00:27:32;;;;;;;0.50;0.50;;;3.70;99.90;;;;;;5093030;28;20024;-71
2023/03/28 00:29:59;;;;;;;0.10;0.10;;;3.60;99.90;;;;;;5073907;28;20079;-71
2023/03/28 00:32:24;;;;;;;0.35;0.35;;;3.60;99.90;;;;;;5072647;28;20024;-72
2023/03/28 00:34:50;;;;;;;0.10;0.10;;;3.20;99.90;;;;;;5071058;28;20378;-72
2023/03/28 00:37:17;;;;;;;3.05;0.45;;;3.10;99.90;;;;;;5072562;28;20025;-72
2023/03/28 00:39:48;;;;;;;0.10;0.10;;;3.20;99.90;;;;;;5071309;28;20073;-72
2023/03/28 00:42:19;;;;;;;0.17;0.17;;;3.00;99.90;;;;;;5071416;28;20119;-71
2023/03/28 00:44:50;;;;;;;0.10;0.10;;;3.20;99.90;;;;;;5071846;28;20461;-71
2023/03/28 00:47:25;;;;;;;0.10;0.10;;;3.40;99.90;;;;;;5074715;28;20067;-72
2023/03/28 00:49:56;;;;;;;1.23;0.65;;;3.10;99.90;;;;;;5076414;28;20055;-72
2023/03/28 00:52:25;;;;;;;0.00;0.00;;;3.00;99.90;;;;;;5075401;28;20389;-71
2023/03/28 00:54:52;;;;;;;0.00;0.00;;;3.00;99.90;;;;;;5074934;28;20017;-72
2023/03/28 00:57:19;;;;;;;0.50;0.50;;;3.10;99.90;;;;;;5076460;28;20036;-72
2023/03/28 00:59:45;;;;;;;0.10;0.10;;;3.20;99.90;;;;;;5074757;28;20031;-72
2023/03/28 01:02:11;;;;;;;0.05;0.05;;;3.10;99.90;;;;;;5075245;28;20398;-72
2023/03/28 01:04:48;;;;;;;0.10;0.10;;;3.20;99.90;;;;;;5074788;28;20499;-72
2023/03/28 01:07:15;;;;;;;3.10;0.63;;;3.20;99.90;;;;;;5074957;28;20074;-72
2023/03/28 01:09:42;;;;;;;0.10;0.10;;;3.00;99.90;;;;;;5075024;28;20056;-72
2023/03/28 01:12:09;;;;;;;1.85;0.43;;;2.80;99.90;;;;;;5074947;28;20473;-72
2023/03/28 01:14:38;;;;;;;0.22;0.22;;;2.70;99.90;;;;;;5075923;28;20032;-72
2023/03/28 01:17:04;;;;;;;0.10;0.10;;;2.50;99.90;;;;;;5074470;28;20052;-72
2023/03/28 01:19:31;;;;;;;0.08;0.08;;;2.40;99.90;;;;;;5074716;28;20020;-72
2023/03/28 01:22:34;;;;;;;0.32;0.32;;;2.40;99.90;;;;;;5074496;28;20024;-72
2023/03/28 01:25:13;;;;;;;1.02;0.40;;;2.60;99.90;;;;;;5074405;28;20032;-71
2023/03/28 01:28:02;;;;;;;0.10;0.10;;;2.60;99.90;;;;;;5073788;28;20450;-72
2023/03/28 01:30:35;;;;;;;0.10;0.10;;;2.50;99.90;;;;;;5074419;28;20028;-71
2023/03/28 01:33:39;;;;;;;0.10;0.10;;;2.60;99.90;;;;;;5060369;28;20072;-72
2023/03/28 01:36:33;;;;;;;0.10;0.10;;;2.80;99.90;;;;;;5061773;28;20031;-71
2023/03/28 01:39:33;;;;;;;0.55;0.55;;;2.40;99.90;;;;;;5056590;28;20439;-71
2023/03/28 01:42:13;;;;;;;0.10;0.10;;;2.10;99.90;;;;;;5054085;28;20431;-72
2023/03/28 01:45:14;;;;;;;0.20;0.20;;;2.10;99.90;;;;;;5056744;28;20370;-72
2023/03/28 01:47:54;;;;;;;0.20;0.20;;;2.10;99.90;;;;;;5069717;28;20401;-71
2023/03/28 01:50:40;;;;;;;0.20;0.20;;;1.90;99.90;;;;;;5064756;28;20396;-71
2023/03/28 01:53:20;;;;;;;7.63;3.83;;;2.00;99.90;;;;;;5074123;28;20507;-71
2023/03/28 01:56:00;;;;;;;0.50;0.50;;;2.10;99.90;;;;;;5072618;28;20033;-71
2023/03/28 01:58:54;;;;;;;0.25;0.25;;;2.10;99.90;;;;;;5072338;28;20032;-71
2023/03/28 02:01:59;;;;;;;0.30;0.30;;;2.30;99.90;;;;;;5060992;28;20029;-72
2023/03/28 02:04:28;;;;;;;0.00;0.00;;;2.40;99.90;;;;;;5072813;28;20032;-72
2023/03/28 02:06:57;;;;;;;0.10;0.10;;;2.10;99.90;;;;;;5072806;28;20032;-71
2023/03/28 02:09:30;;;;;;;0.52;0.52;;;2.20;99.90;;;;;;5072567;28;20036;-71
2023/03/28 02:12:09;;;;;;;0.80;0.63;;;2.20;99.90;;;;;;5073446;28;20044;-72
2023/03/28 02:15:05;;;;;;;0.30;0.30;;;2.30;99.90;;;;;;5058624;28;20033;-72
2023/03/28 02:17:53;;;;;;;0.10;0.10;;;2.20;99.90;;;;;;5073292;28;20037;-71
2023/03/28 02:20:39;;;;;;;0.10;0.10;;;2.30;99.90;;;;;;5072561;28;20129;-71
2023/03/28 02:23:35;;;;;;;0.13;0.13;;;2.50;99.90;;;;;;5067968;28;20041;-72
2023/03/28 02:26:23;;;;;;;2.05;0.88;;;2.40;99.90;;;;;;5072987;28;20398;-72
2023/03/28 02:29:01;;;;;;;0.08;0.08;;;2.50;99.90;;;;;;5072461;28;20068;-71
2023/03/28 02:31:37;;;;;;;0.10;0.10;;;2.30;99.90;;;;;;5073347;28;20025;-71
2023/03/28 02:34:03;;;;;;;0.10;0.10;;;2.20;99.90;;;;;;5072381;28;20173;-72
2023/03/28 02:36:33;;;;;;;0.10;0.10;;;2.30;99.90;;;;;;5072012;28;20077;-72
2023/03/28 02:39:09;;;;;;;5.47;0.65;;;2.50;99.90;;;;;;5033907;28;1103265;-72
2023/03/28 02:42:12;;;;;;;0.10;0.10;;;2.60;99.90;;;;;;5074116;28;20040;-72
2023/03/28 02:44:56;;;;;;;1.17;1.17;;;2.60;99.90;;;;;;5059985;28;20064;-72
2023/03/28 02:47:48;;;;;;;0.70;0.70;;;2.60;99.90;;;;;;5072770;28;20028;-71
2023/03/28 02:50:24;;;;;;;0.10;0.10;;;2.20;99.90;;;;;;5050776;28;20040;-71
2023/03/28 02:53:09;;;;;;;0.38;0.38;;;2.20;99.90;;;;;;5074063;28;20396;-71
2023/03/28 02:55:44;;;;;;;0.00;0.00;;;2.30;99.90;;;;;;5072627;28;20083;-71
2023/03/28 02:58:39;;;;;;;0.10;0.10;;;2.40;99.90;;;;;;5063069;28;20039;-72
2023/03/28 03:01:06;;;;;;;0.10;0.10;;;2.10;99.90;;;;;;5072738;28;20029;-71
2023/03/28 03:03:36;;;;;;;0.28;0.28;;;2.30;99.90;;;;;;5074010;28;20027;-72
2023/03/28 03:06:03;;;;;;;0.10;0.10;;;2.50;99.90;;;;;;5073874;28;20063;-71
2023/03/28 03:08:29;;;;;;;0.10;0.10;;;2.20;99.90;;;;;;5072863;28;20025;-72
2023/03/28 03:10:56;;;;;;;0.52;0.52;;;2.20;99.90;;;;;;5055844;28;20074;-72
2023/03/28 03:13:23;;;;;;;0.10;0.10;;;2.30;99.90;;;;;;5073523;28;20482;-71
2023/03/28 03:15:49;;;;;;;0.10;0.10;;;2.20;99.90;;;;;;5072522;28;20397;-72
2023/03/28 03:18:33;;;;;;;0.10;0.10;;;2.30;99.90;;;;;;5072136;28;20032;-72
2023/03/28 03:21:00;;;;;;;0.95;0.95;;;2.30;99.90;;;;;;5072253;28;20432;-72
2023/03/28 03:23:26;;;;;;;0.10;0.10;;;2.30;99.90;;;;;;5071890;28;20111;-72
2023/03/28 03:25:55;;;;;;;0.10;0.10;;;2.40;99.90;;;;;;5072464;28;20111;-72
2023/03/28 03:28:30;;;;;;;0.10;0.10;;;2.40;99.90;;;;;;5072000;28;20064;-72
2023/03/28 03:30:56;;;;;;;0.08;0.08;;;2.50;99.90;;;;;;5072224;28;20025;-70
2023/03/28 03:33:57;;;;;;;0.00;0.00;;;2.40;99.90;;;;;;5050972;28;20124;-72
2023/03/28 03:36:30;;;;;;;0.10;0.10;;;2.50;99.90;;;;;;5061994;28;20039;-72
2023/03/28 03:38:58;;;;;;;0.10;0.10;;;2.70;99.90;;;;;;5067771;28;20032;-72
2023/03/28 03:41:25;;;;;;;0.10;0.10;;;2.70;99.90;;;;;;5072139;28;20032;-72
2023/03/28 03:43:50;;;;;;;0.10;0.10;;;2.60;99.90;;;;;;5055044;28;20473;-70
2023/03/28 03:46:16;;;;;;;0.10;0.10;;;2.60;99.90;;;;;;5072207;28;20021;-70
2023/03/28 03:48:43;;;;;;;0.52;0.52;;;2.60;99.90;;;;;;5071498;28;20377;-72
2023/03/28 03:51:10;;;;;;;0.10;0.10;;;2.50;99.90;;;;;;5071848;28;20024;-72
2023/03/28 03:53:37;;;;;;;0.10;0.10;;;2.50;99.90;;;;;;5071459;28;20024;-72
2023/03/28 03:56:10;;;;;;;0.10;0.10;;;2.50;99.90;;;;;;5071609;28;20107;-72
2023/03/28 03:58:51;;;;;;;0.10;0.10;;;2.70;99.90;;;;;;5071637;28;20125;-72
2023/03/28 04:01:20;;;;;;;1.05;1.05;;;2.60;99.90;;;;;;5071368;28;20020;-72
2023/03/28 04:03:46;;;;;;;0.10;0.10;;;2.40;99.90;;;;;;5071446;28;20027;-71
2023/03/28 04:06:18;;;;;;;0.10;0.10;;;2.30;99.90;;;;;;5071564;28;20445;-72
2023/03/28 04:08:44;;;;;;;0.10;0.10;;;2.00;99.90;;;;;;5070993;28;20040;-71
2023/03/28 04:11:14;;;;;;;0.65;0.65;;;2.20;99.90;;;;;;5071225;28;20082;-71
2023/03/28 04:13:42;;;;;;;0.00;0.00;;;2.30;99.90;;;;;;5071313;28;20385;-71
2023/03/28 04:16:08;;;;;;;0.20;0.20;;;2.30;99.90;;;;;;5071389;28;20021;-72
2023/03/28 04:18:49;;;;;;;0.10;0.10;;;2.30;99.90;;;;;;5071336;28;20036;-71
2023/03/28 04:21:24;;;;;;;0.08;0.08;;;2.20;99.90;;;;;;5071217;28;20085;-72
2023/03/28 04:23:50;;;;;;;0.10;0.10;;;2.20;99.90;;;;;;5072464;28;20040;-71
2023/03/28 04:26:34;;;;;;;0.00;0.00;;;2.30;99.90;;;;;;5071393;28;20111;-71
2023/03/28 04:29:04;;;;;;;16.55;7.82;;;2.10;99.90;;;;;;5071040;28;20123;-71
2023/03/28 04:31:34;;;;;;;0.10;0.10;;;2.10;99.90;;;;;;5071231;28;20036;-71
2023/03/28 04:34:18;;;;;;;0.10;0.10;;;2.10;99.90;;;;;;5072596;28;20036;-71
2023/03/28 04:37:02;;;;;;;0.05;0.05;;;2.00;99.90;;;;;;5070739;28;20048;-71
2023/03/28 04:39:34;;;;;;;0.20;0.20;;;2.00;99.90;;;;;;5071058;28;20024;-71
2023/03/28 04:42:26;;;;;;;0.00;0.00;;;2.00;99.90;;;;;;5056968;28;20040;-71
2023/03/28 04:45:05;;;;;;;0.10;0.10;;;2.10;99.90;;;;;;5071208;28;20473;-71
2023/03/28 04:47:33;;;;;;;0.10;0.10;;;2.10;99.90;;;;;;5070946;28;20123;-72
2023/03/28 04:49:59;;;;;;;0.00;0.00;;;2.00;99.90;;;;;;5071219;28;20457;-71
2023/03/28 04:52:30;;;;;;;0.10;0.10;;;2.00;99.90;;;;;;5070666;28;20056;-71
2023/03/28 04:54:55;;;;;;;0.10;0.10;;;2.10;99.90;;;;;;5072375;28;20063;-71
2023/03/28 04:57:23;;;;;;;0.10;0.10;;;1.90;99.90;;;;;;5054564;28;20437;-71
2023/03/28 04:59:52;;;;;;;1.10;1.00;;;2.00;99.90;;;;;;5057406;28;20500;-71
2023/03/28 05:02:41;;;;;;;0.10;0.10;;;2.10;99.90;;;;;;5071970;28;20036;-71
2023/03/28 05:05:10;;;;;;;0.10;0.10;;;2.00;99.90;;;;;;5070535;28;20561;-71
2023/03/28 05:07:36;;;;;;;0.90;0.90;;;2.10;99.90;;;;;;5072049;28;20032;-71
2023/03/28 05:10:04;;;;;;;0.10;0.10;;;2.00;99.90;;;;;;5070960;28;20028;-71
2023/03/28 05:12:35;;;;;;;0.10;0.10;;;2.00;99.90;;;;;;5071050;28;20024;-71
2023/03/28 05:15:04;;;;;;;0.20;0.20;;;2.10;99.90;;;;;;5070856;28;20100;-71
2023/03/28 05:17:32;;;;;;;0.00;0.00;;;2.00;99.90;;;;;;5070891;28;20028;-71
2023/03/28 05:20:00;;;;;;;0.00;0.00;;;1.90;99.90;;;;;;5069802;28;20027;-71
2023/03/28 05:22:33;;;;;;;0.35;0.35;;;1.90;99.90;;;;;;5070648;28;20173;-71
2023/03/28 05:24:59;;;;;;;0.43;0.43;;;2.00;99.90;;;;;;5070697;28;20028;-71
2023/03/28 05:27:25;;;;;;;0.10;0.10;;;1.90;99.90;;;;;;5070769;28;20036;-72
2023/03/28 05:29:51;;;;;;;0.10;0.10;;;1.90;99.90;;;;;;5070174;28;20044;-72
2023/03/28 05:32:17;;;;;;;0.40;0.20;;;2.00;99.90;;;;;;5072218;28;20100;-71
2023/03/28 05:34:44;;;;;;;0.20;0.20;;;2.20;99.90;;;;;;5074189;28;20040;-71
2023/03/28 05:37:10;;;;;;;3.13;1.30;;;2.30;99.90;;;;;;5075536;28;20371;-71
2023/03/28 05:40:05;;;;;;;;;;;2.50;99.90;;;;;;5074654;28;20045;-71
2023/03/28 05:42:35;;;;;;;0.65;0.45;;;2.50;99.90;;;;;;5074131;28;19908;-71
2023/03/28 05:45:11;;;;;;;0.10;0.10;;;2.50;99.90;;;;;;5074276;28;20025;-71
2023/03/28 05:47:54;;;;;;;0.10;0.10;;;2.60;99.90;;;;;;5074017;28;20037;-71
2023/03/28 05:50:22;;;;;;;0.10;0.10;;;2.60;99.90;;;;;;5061536;28;20031;-71
2023/03/28 05:52:49;;;;;;;0.10;0.10;;;2.60;99.90;;;;;;5076085;28;20383;-71
2023/03/28 05:55:15;;;;;;;0.22;0.22;;;2.80;99.90;;;;;;5073444;28;20016;-72
2023/03/28 05:57:43;;;;;;;0.20;0.20;;;2.50;99.90;;;;;;5073271;28;20025;-72
2023/03/28 06:00:11;;;;;;;0.43;0.40;;;2.60;99.90;;;;;;5086112;28;20103;-71
2023/03/28 06:02:44;;;;;;;0.10;0.10;;;2.60;99.90;;;;;;5085213;28;20036;-71
2023/03/28 06:05:11;;;;;;;0.38;0.38;;;2.70;99.90;;;;;;5077011;28;20028;-72
2023/03/28 06:07:37;;;;;;;0.43;0.43;;;2.80;99.90;;;;;;5073541;28;20078;-71
2023/03/28 06:10:07;;;;;;;5.60;1.63;;;2.90;99.90;;;;;;5089707;28;20067;-71
2023/03/28 06:12:34;;;;;;;1.50;1.40;;;2.70;99.90;;;;;;5087240;28;20032;-71
2023/03/28 06:15:01;;;;;;;8.00;1.00;;;2.50;99.90;;;;;;5076957;28;20507;-71
2023/03/28 06:17:31;;;;;;;3.40;1.50;;;2.50;99.90;;;;;;5075879;28;20477;-71
2023/03/28 06:19:59;;;;;;;0.45;0.45;;;2.50;99.90;;;;;;5075766;28;20051;-71
2023/03/28 06:22:25;;;;;;;2.75;1.05;;;2.50;99.90;;;;;;5088726;28;20028;-71
2023/03/28 06:24:56;;;;;;;2.07;0.47;;;2.60;99.90;;;;;;5083617;28;20457;-71
2023/03/28 06:27:27;;;;;;;0.40;0.40;;;2.60;99.90;;;;;;5077786;28;20020;-71
2023/03/28 06:29:54;;;;;;;0.63;0.52;;;2.60;99.90;;;;;;5058663;28;20043;-71
2023/03/28 06:32:19;;;;;;;0.52;0.52;;;2.70;99.90;;;;;;5077164;28;20020;-71
2023/03/28 06:34:46;;;;;;;0.22;0.22;;;2.70;99.90;;;;;;5075297;28;20028;-71
2023/03/28 06:37:12;;;;;;;1.40;1.30;;;2.70;99.90;;;;;;5079365;28;20025;-69
2023/03/28 06:40:04;;;;;;;;;;;2.80;99.90;;;;;;5083181;28;20496;-70
2023/03/28 06:42:30;;;;;;;0.57;0.50;;;2.80;99.90;;;;;;5077705;28;19915;-70
2023/03/28 06:45:14;;;;;;;1.65;1.17;;;2.80;99.90;;;;;;5072823;28;20486;-70
2023/03/28 06:47:50;;;;;;;0.65;0.50;;;2.70;99.90;;;;;;5076580;28;20039;-70
2023/03/28 06:50:19;;;;;;;2.85;2.53;;;2.80;99.90;;;;;;5085334;28;20107;-71
2023/03/28 06:53:11;;;;;;;0.90;0.90;;;2.80;99.90;;;;;;5069465;28;20488;-70
2023/03/28 06:55:36;;;;;;;0.57;0.45;;;2.80;99.90;;;;;;5074833;28;20036;-70
2023/03/28 06:58:02;;;;;;;3.17;0.70;;;2.80;99.90;;;;;;5076399;28;20024;-71
2023/03/28 07:00:37;;;;;;;0.30;0.30;;;2.90;99.90;;;;;;5087198;28;20027;-70
2023/03/28 07:03:32;;;;;;;1.13;0.55;;;3.00;99.90;;;;;;5068646;28;20033;-71
2023/03/28 07:06:03;;;;;;;1.30;0.85;;;3.10;99.90;;;;;;5077049;28;20024;-71
2023/03/28 07:08:29;;;;;;;0.25;0.25;;;3.00;99.90;;;;;;5078309;28;20047;-70
2023/03/28 07:10:55;;;;;;;0.52;0.45;;;3.10;99.90;;;;;;5088857;28;20062;-70
2023/03/28 07:13:21;;;;;;;0.35;0.35;;;3.20;99.90;;;;;;5081988;28;20028;-70
2023/03/28 07:16:07;;;;;;;0.30;0.30;;;3.30;99.90;;;;;;5079291;28;20029;-70
2023/03/28 07:18:34;;;;;;;1.65;1.10;;;3.40;99.90;;;;;;5071450;28;20024;-71
2023/03/28 07:21:09;;;;;;;0.57;0.57;;;3.40;99.90;;;;;;5082808;28;20062;-71
2023/03/28 07:23:35;;;;;;;7.68;3.17;;;3.50;99.90;;;;;;5081976;28;20040;-70
2023/03/28 07:26:02;;;;;;;0.20;0.20;;;3.40;99.90;;;;;;5070757;28;20468;-70
2023/03/28 07:28:28;;;;;;;4.47;1.00;;;3.40;99.90;;;;;;5071246;28;20032;-72
2023/03/28 07:30:55;;;;;;;3.45;0.98;;;3.50;99.90;;;;;;5068874;28;20031;-71
2023/03/28 07:33:21;;;;;;;1.83;1.00;;;3.50;99.90;;;;;;5073692;28;20024;-72
2023/03/28 07:35:47;;;;;;;2.05;1.60;;;3.80;99.90;;;;;;5073993;28;20028;-71
2023/03/28 07:38:13;;;;;;;1.75;1.10;;;3.70;99.90;;;;;;5072486;28;20040;-71
2023/03/28 07:40:48;;;;;;;1.00;0.43;;;3.80;99.90;;;;;;5084522;28;20024;-71
2023/03/28 07:43:14;;;;;;;0.20;0.20;;;3.90;99.90;;;;;;5085075;28;20016;-71
2023/03/28 07:45:40;;;;;;;2.03;1.58;;;3.90;99.90;;;;;;5082191;28;20040;-71
2023/03/28 07:48:06;;;;;;;0.20;0.20;;;4.10;99.90;;;;;;5073874;28;20036;-71
2023/03/28 07:50:32;;;;;;;7.45;1.85;;;4.30;99.90;;;;;;5071375;28;20016;-71
2023/03/28 07:52:59;;;;;;;2.45;1.38;;;4.40;99.90;;;;;;5084294;28;20016;-72
2023/03/28 07:55:28;;;;;;;0.20;0.20;;;4.40;99.90;;;;;;5083763;28;20446;-72
2023/03/28 07:57:54;;;;;;;0.85;0.80;;;4.70;99.90;;;;;;5077364;28;20021;-71
2023/03/28 08:00:26;;;;;;;2.83;1.48;;;4.70;99.90;;;;;;5072764;28;20054;-72
2023/03/28 08:03:12;;;;;;;6.57;2.58;;;4.70;99.90;;;;;;5088664;28;20028;-71
2023/03/28 08:05:38;;;;;;;7.60;1.00;;;4.50;99.90;;;;;;5085849;28;20023;-72
2023/03/28 08:08:06;;;;;;;0.70;0.70;;;4.40;99.90;;;;;;5078857;28;20039;-72
2023/03/28 08:10:32;;;;;;;2.17;1.08;;;4.50;99.90;;;;;;5074740;28;20028;-72
2023/03/28 08:12:58;;;;;;;2.50;1.55;;;4.70;99.90;;;;;;5073088;28;20488;-72
2023/03/28 08:15:24;;;;;;;2.72;1.38;;;4.70;99.90;;;;;;5087352;28;20028;-72
2023/03/28 08:17:50;;;;;;;9.95;2.55;;;4.70;99.90;;;;;;5084803;28;20476;-72
2023/03/28 08:20:18;;;;;;;2.95;1.38;;;4.90;99.90;;;;;;5076503;28;20057;-72
2023/03/28 08:22:45;;;;;;;0.70;0.52;;;5.00;99.90;;;;;;5073318;28;20060;-71
2023/03/28 08:25:29;;;;;;;1.55;1.13;;;5.00;99.90;;;;;;5064250;28;20043;-71
2023/03/28 08:27:55;;;;;;;1.63;1.02;;;5.00;99.90;;;;;;5084816;28;20025;-71
2023/03/28 08:30:21;;;;;;;0.10;0.10;;;5.10;99.90;;;;;;5078580;28;20032;-71
2023/03/28 08:32:55;;;;;;;1.85;1.75;;;5.00;99.90;;;;;;5076277;28;20036;-72
2023/03/28 08:35:21;;;;;;;2.90;1.05;;;5.10;99.90;;;;;;5077682;28;20059;-71
2023/03/28 08:37:51;;;;;;;1.33;1.23;;;5.40;99.90;;;;;;5080815;28;20376;-71
2023/03/28 08:40:19;;;;;;;1.65;1.02;;;5.50;99.90;;;;;;5082483;28;20511;-72
2023/03/28 08:43:02;;;;;;;0.20;0.20;;;5.50;99.90;;;;;;5081337;28;20385;-71
2023/03/28 08:45:50;;;;;;;2.17;0.77;;;5.50;99.90;;;;;;5069402;28;20059;-71
2023/03/28 08:48:32;;;;;;;0.10;0.10;;;5.50;99.90;;;;;;5065118;28;20041;-71
2023/03/28 08:51:05;;;;;;;;;;;5.70;99.90;;;;;;5072310;28;20463;-71
2023/03/28 08:53:34;;;;;;;0.47;0.47;;;5.90;99.90;;;;;;5085910;28;20317;-71
2023/03/28 08:56:03;;;;;;;2.60;1.55;;;6.10;99.90;;;;;;5080445;28;20024;-71
2023/03/28 08:58:41;;;;;;;2.40;1.65;;;6.10;99.90;;;;;;5075103;28;20020;-71
2023/03/28 09:01:09;;;;;;;8.15;2.05;;;6.20;99.90;;;;;;5075994;28;20037;-71
2023/03/28 09:03:35;;;;;;;0.93;0.77;;;6.00;99.90;;;;;;5089057;28;20031;-70
2023/03/28 09:06:43;;;;;;;0.95;0.80;;;6.20;99.90;;;;;;5083512;28;20028;-71
2023/03/28 09:10:05;;;;;;;1.13;1.10;;;6.30;99.90;;;;;;5083934;28;20044;-71
2023/03/28 09:12:55;;;;;;;4.18;1.08;;;6.70;99.90;;;;;;5037249;28;20409;-71
2023/03/28 09:15:44;;;;;;;0.52;0.52;;;7.20;99.90;;;;;;5073798;28;20131;-71
2023/03/28 09:18:30;;;;;;;4.78;1.70;;;7.30;99.90;;;;;;5065284;28;20013;-71
2023/03/28 09:21:15;;;;;;;5.28;1.55;;;7.10;99.90;;;;;;5072672;28;20032;-70
2023/03/28 09:24:23;;;;;;;0.63;0.63;;;6.90;99.90;;;;;;5060383;28;20115;-71
2023/03/28 09:27:15;;;;;;;0.60;0.60;;;7.10;99.90;;;;;;5044790;28;20033;-71
2023/03/28 09:29:44;;;;;;;4.07;1.45;;;7.30;99.90;;;;;;5073227;28;20614;-70
2023/03/28 09:32:33;;;;;;;2.40;0.43;;;7.30;99.90;;;;;;5073884;28;20419;-71
2023/03/28 09:35:00;;;;;;;0.10;0.10;;;7.70;99.90;;;;;;5075585;28;20032;-71
2023/03/28 09:37:34;;;;;;;6.20;1.17;;;7.40;99.90;;;;;;5074183;28;20025;-71
2023/03/28 09:40:19;;;;;;;1.77;0.88;;;7.50;99.90;;;;;;5074355;28;20075;-71
2023/03/28 09:43:22;;;;;;;2.30;0.93;;;7.60;99.90;;;;;;5062958;28;20120;-72
2023/03/28 09:46:17;;;;;;;3.83;0.93;;;7.80;99.90;;;;;;5075110;28;20103;-72
2023/03/28 09:48:57;;;;;;;1.40;0.52;;;7.80;99.90;;;;;;5073996;28;20040;-71
2023/03/28 09:51:28;;;;;;;1.17;0.63;;;7.70;99.90;;;;;;5073623;28;20021;-71
2023/03/28 09:53:54;;;;;;;1.00;0.75;;;7.60;99.90;;;;;;5073845;28;20045;-70
2023/03/28 09:56:32;;;;;;;1.45;0.80;;;7.50;99.90;;;;;;5067478;28;20013;-71
2023/03/28 09:59:27;;;;;;;0.20;0.20;;;7.40;99.90;;;;;;5063959;28;20028;-70
2023/03/28 10:01:55;;;;;;;2.53;0.47;;;7.60;99.90;;;;;;5074574;28;20023;-71
2023/03/28 10:04:27;;;;;;;3.20;1.25;;;7.50;99.90;;;;;;5085818;28;20042;-71
2023/03/28 10:07:28;;;;;;;4.03;0.68;;;7.70;99.90;;;;;;5072509;28;20028;-70
2023/03/28 10:10:15;;;;;;;9.82;0.77;;;7.70;99.90;;;;;;5071926;28;20507;-70
2023/03/28 10:12:46;;;;;;;3.85;1.08;;;7.60;99.90;;;;;;5050205;28;20472;-71
2023/03/28 10:15:44;;;;;;;9.80;1.88;;;7.60;99.90;;;;;;5075928;28;20086;-70
2023/03/28 10:18:30;;;;;;;8.75;2.13;;;7.60;99.90;;;;;;5076156;28;20078;-70
2023/03/28 10:21:21;;;;;;;4.82;1.45;;;7.40;99.90;;;;;;5073164;28;20503;-70
2023/03/28 10:24:06;;;;;;;2.33;0.73;;;7.50;99.90;;;;;;5076659;28;20038;-71
2023/03/28 10:26:34;;;;;;;0.50;0.50;;;7.70;99.90;;;;;;5081879;28;20118;-71
2023/03/28 10:29:06;;;;;;;0.70;0.70;;;7.90;99.90;;;;;;5077490;28;20052;-71
2023/03/28 10:31:33;;;;;;;0.38;0.38;;;8.00;99.90;;;;;;5068273;28;20076;-69
2023/03/28 10:34:26;;;;;;;3.53;2.08;;;8.20;99.90;;;;;;5073413;28;20132;-71
2023/03/28 10:37:25;;;;;;;7.80;1.65;;;8.20;99.90;;;;;;5072890;28;20119;-70
2023/03/28 10:40:30;;;;;;;2.17;1.00;;;8.00;99.90;;;;;;5074438;28;20056;-70
2023/03/28 10:43:52;;;;;;;5.72;1.25;;;7.90;99.90;;;;;;5060507;28;20033;-72
2023/03/28 10:46:33;;;;;;;0.50;0.50;;;7.90;99.90;;;;;;5072934;28;20024;-71
2023/03/28 10:49:16;;;;;;;4.38;0.57;;;7.90;99.90;;;;;;5069692;28;20527;-71
2023/03/28 10:51:48;;;;;;;1.35;1.08;;;8.10;99.90;;;;;;5071867;28;20481;-72
2023/03/28 10:54:34;;;;;;;7.53;1.15;;;8.10;99.90;;;;;;5072054;28;20032;-71
2023/03/28 10:57:11;;;;;;;1.45;0.45;;;8.10;99.90;;;;;;5072644;28;20056;-72
2023/03/28 10:59:58;;;;;;;6.55;1.40;;;8.30;99.90;;;;;;5052620;28;20017;-71
2023/03/28 11:02:41;;;;;;;2.92;0.70;;;8.40;99.90;;;;;;5067731;28;20036;-71
2023/03/28 11:05:26;;;;;;;6.75;1.85;;;8.30;99.90;;;;;;5070777;28;20477;-71
2023/03/28 11:08:08;;;;;;;0.75;0.75;;;8.40;99.90;;;;;;5070140;28;20082;-71
2023/03/28 11:11:20;;;;;;;6.78;1.08;;;8.40;99.90;;;;;;5072500;28;20060;-71
2023/03/28 11:14:44;;;;;;;0.25;0.22;;;8.40;99.90;;;;;;5063957;28;20033;-71
2023/03/28 11:17:39;;;;;;;1.90;1.38;;;8.80;99.90;;;;;;5046116;28;20029;-71
2023/03/28 11:20:28;;;;;;;2.40;1.20;;;8.80;99.60;;;;;;5036110;28;20017;-71
2023/03/28 11:23:16;;;;;;;1.67;0.80;;;8.70;99.90;;;;;;5067983;28;20032;-71
2023/03/28 11:26:13;;;;;;;16.52;2.97;;;8.80;99.80;;;;;;5072446;28;20059;-71
2023/03/28 11:29:48;;;;;;;1.15;0.60;;;9.20;99.90;;;;;;5062789;28;20093;-71
2023/03/28 11:32:42;;;;;;;3.63;0.90;;;9.30;99.20;;;;;;5070196;28;20060;-71
2023/03/28 11:35:26;;;;;;;13.43;3.50;;;9.10;99.80;;;;;;5071494;28;20039;-71
2023/03/28 11:38:14;;;;;;;0.93;0.68;;;9.30;99.30;;;;;;5071205;28;20020;-71
2023/03/28 11:40:54;;;;;;;2.07;0.60;;;9.60;99.30;;;;;;5071810;28;20123;-71
2023/03/28 11:43:29;;;;;;;4.68;1.50;;;9.60;99.10;;;;;;5072019;28;20028;-71
2023/03/28 11:46:06;;;;;;;4.05;1.58;;;9.60;99.30;;;;;;5055256;28;20472;-71
2023/03/28 11:48:54;;;;;;;1.65;0.52;;;9.50;99.00;;;;;;5073174;28;20055;-71
2023/03/28 11:51:33;;;;;;;0.30;0.30;;;9.50;99.30;;;;;;5071642;28;20024;-71
2023/03/28 11:54:11;;;;;;;0.17;0.17;;;9.30;99.20;;;;;;5071555;28;20028;-71
2023/03/28 11:57:16;;;;;;;2.40;0.47;;;9.40;99.80;;;;;;5072032;28;20055;-71
2023/03/28 11:59:54;;;;;;;0.17;0.17;;;9.50;99.70;;;;;;5055625;28;20029;-71
2023/03/28 12:02:29;;;;;;;1.00;0.52;;;9.30;99.90;;;;;;5071874;28;20485;-71
2023/03/28 12:05:16;;;;;;;14.55;1.10;;;9.70;99.90;;;;;;5071408;28;20025;-71
2023/03/28 12:08:07;;;;;;;1.70;1.00;;;10.10;99.70;;;;;;5070980;28;20032;-72
2023/03/28 12:10:36;;;;;;;2.38;1.55;;;10.20;98.60;;;;;;5071814;28;20590;-72
2023/03/28 12:13:37;;;;;;;0.88;0.80;;;9.90;98.90;;;;;;5057036;28;20063;-71
2023/03/28 12:16:12;;;;;;;6.85;0.88;;;9.80;99.50;;;;;;5062290;28;20427;-71
2023/03/28 12:18:54;;;;;;;2.10;1.42;;;9.40;99.40;;;;;;5071420;28;20047;-71
2023/03/28 12:21:43;;;;;;;3.08;0.82;;;9.60;99.10;;;;;;5071083;28;20035;-72
2023/03/28 12:24:12;;;;;;;0.30;0.30;;;9.70;99.60;;;;;;5071455;28;20064;-71
2023/03/28 12:27:15;;;;;;;7.18;0.93;;;10.40;99.50;;;;;;5071237;28;20073;-71
2023/03/28 12:30:26;;;;;;;3.75;1.95;;;10.90;98.00;;;;;;5071522;28;20089;-71
2023/03/28 12:33:05;;;;;;;1.55;0.68;;;10.90;97.80;;;;;;5048567;28;20047;-71
2023/03/28 12:35:46;;;;;;;1.83;1.42;;;10.60;98.20;;;;;;5057721;28;20485;-71
2023/03/28 12:38:32;;;;;;;2.70;1.25;;;10.70;97.90;;;;;;5071217;28;20033;-71
2023/03/28 12:41:20;;;;;;;1.27;0.95;;;10.30;98.70;;;;;;5072770;28;20021;-71
2023/03/28 12:43:54;;;;;;;2.20;1.45;;;10.00;99.10;;;;;;5075485;28;20028;-71
2023/03/28 12:46:45;;;;;;;2.33;0.90;;;9.80;99.70;;;;;;5059576;28;20103;-71
2023/03/28 12:49:32;;;;;;;1.02;0.95;;;9.70;99.70;;;;;;5086952;28;20489;-71
2023/03/28 12:52:10;;;;;;;1.58;1.13;;;9.80;99.90;;;;;;5059237;28;20025;-71
2023/03/28 12:54:54;;;;;;;15.40;2.75;;;9.80;99.90;;;;;;5074890;28;20257;-71
2023/03/28 12:57:47;;;;;;;0.32;0.32;;;9.70;99.90;;;;;;5075046;28;20035;-71
2023/03/28 13:00:48;;;;;;;3.38;0.77;;;10.00;99.90;;;;;;5069136;28;20036;-71
2023/03/28 13:03:51;;;;;;;3.53;1.45;;;10.20;99.90;;;;;;5065015;28;20063;-71
2023/03/28 13:06:37;;;;;;;0.47;0.47;;;10.10;99.90;;;;;;5074907;28;20025;-71
2023/03/28 13:09:56;;;;;;;2.35;1.45;;;10.20;99.90;;;;;;5076245;28;20041;-71
2023/03/28 13:12:31;;;;;;;1.10;0.30;;;10.20;99.90;;;;;;5045241;28;20033;-72
2023/03/28 13:15:21;;;;;;;2.25;2.05;;;10.40;99.90;;;;;;5060028;28;20045;-72
2023/03/28 13:18:21;;;;;;;3.38;1.20;;;10.70;99.90;;;;;;5069133;28;20101;-71
2023/03/28 13:20:50;;;;;;;2.17;1.33;;;10.70;99.80;;;;;;5066238;28;20029;-71
2023/03/28 13:23:17;;;;;;;2.60;0.73;;;10.40;99.90;;;;;;5076026;28;20060;-71
2023/03/28 13:25:53;;;;;;;2.80;1.38;;;10.70;99.90;;;;;;5075843;28;20082;-71
2023/03/28 13:28:28;;;;;;;6.40;2.45;;;10.80;99.90;;;;;;5075679;28;20032;-71
2023/03/28 13:31:21;;;;;;;4.47;0.73;;;10.40;99.90;;;;;;5075700;28;20067;-71
2023/03/28 13:33:59;;;;;;;0.68;0.60;;;10.80;99.90;;;;;;5075378;28;20116;-71
2023/03/28 13:36:34;;;;;;;1.27;0.60;;;11.00;99.90;;;;;;5075735;28;20111;-71
2023/03/28 13:39:24;;;;;;;3.33;1.77;;;11.20;99.90;;;;;;5069881;28;20033;-71
2023/03/28 13:41:54;;;;;;;6.28;2.58;;;10.90;99.80;;;;;;5057523;28;20028;-71
2023/03/28 13:44:35;;;;;;;7.32;0.82;;;10.70;99.90;;;;;;5075547;28;20025;-71
2023/03/28 13:47:00;;;;;;;2.70;1.77;;;10.50;99.90;;;;;;5075192;28;20503;-71
2023/03/28 13:49:43;;;;;;;6.55;2.47;;;10.50;99.90;;;;;;5075265;28;20060;-71